createdAt,value
2017-08-24T00:00:47.132Z,88.24
2017-08-24T00:01:47.172Z,88.91
2017-08-24T00:02:47.103Z,89.39
2017-08-24T00:03:47.194Z,88.81
2017-08-24T00:04:47.161Z,89.39
2017-08-24T00:05:47.196Z,88.87
2017-08-24T00:06:47.226Z,88.77
2017-08-24T00:07:47.146Z,89.68
2017-08-24T00:08:47.179Z,89.49
2017-08-24T00:09:47.220Z,89.49
2017-08-24T00:10:47.174Z,89.29
2017-08-24T00:11:47.183Z,89.1
2017-08-24T00:12:47.174Z,89.49
2017-08-24T00:13:47.187Z,89.29
2017-08-24T00:14:46.847Z,89.87
2017-08-24T00:15:47.192Z,89.39
2017-08-24T00:16:47.180Z,89.78
2017-08-24T00:17:47.270Z,89.54
2017-08-24T00:18:47.166Z,90.12
2017-08-24T00:19:47.202Z,90.31
2017-08-24T00:20:47.179Z,90.69
2017-08-24T00:21:47.220Z,90.5
2017-08-24T00:22:47.194Z,90.59
2017-08-24T00:23:47.244Z,90.59
2017-08-24T00:24:47.199Z,90.21
2017-08-24T00:25:47.229Z,91.46
2017-08-24T00:26:46.935Z,90.59
2017-08-24T00:27:47.249Z,91.36
2017-08-24T00:28:50.526Z,91.36
2017-08-24T00:29:47.236Z,91.46
2017-08-24T00:30:47.188Z,91.56
2017-08-24T00:31:47.222Z,90.59
2017-08-24T00:32:46.928Z,91.27
2017-08-24T00:33:47.237Z,91.56
2017-08-24T00:34:47.213Z,91.66
2017-08-24T00:35:46.925Z,91.56
2017-08-24T00:36:47.229Z,92.23
2017-08-24T00:37:47.202Z,92.13
2017-08-24T00:38:47.223Z,92.23
2017-08-24T00:39:47.305Z,92.23
2017-08-24T00:40:46.930Z,92.43
2017-08-24T00:41:47.227Z,92.61
2017-08-24T00:42:47.303Z,92.52
2017-08-24T00:43:47.233Z,92.33
2017-08-24T00:44:47.238Z,92.43
2017-08-24T00:45:47.289Z,92.23
2017-08-24T00:46:47.240Z,92.91
2017-08-24T00:47:47.252Z,93.1
2017-08-24T00:48:47.255Z,92.91
2017-08-24T00:49:47.014Z,93.19
2017-08-24T00:50:47.313Z,93.29
2017-08-24T00:51:47.293Z,93.38
2017-08-24T00:52:47.245Z,93.05
2017-08-24T00:53:47.286Z,91.99
2017-08-24T00:54:47.247Z,92.61
2017-08-24T00:55:46.981Z,93.24
2017-08-24T00:56:47.351Z,93.1
2017-08-24T00:57:47.364Z,93.1
2017-08-24T00:58:47.310Z,92.81
2017-08-24T00:59:47.252Z,93.1
2017-08-24T01:00:47.303Z,93.19
2017-08-24T01:01:47.310Z,93
2017-08-24T01:02:46.959Z,93
2017-08-24T01:03:46.967Z,93
2017-08-24T01:04:46.992Z,92.61
2017-08-24T01:05:47.307Z,93.1
2017-08-24T01:06:46.983Z,92.71
2017-08-24T01:07:47.292Z,93.48
2017-08-24T01:08:46.993Z,93.1
2017-08-24T01:09:47.336Z,93.34
2017-08-24T01:10:47.308Z,93.44
2017-08-24T01:11:47.030Z,93.73
2017-08-24T01:12:47.301Z,93.87
2017-08-24T01:13:47.356Z,93.68
2017-08-24T01:14:50.132Z,93.87
2017-08-24T01:15:47.307Z,93.68
2017-08-24T01:16:47.007Z,93.19
2017-08-24T01:17:46.990Z,93.48
2017-08-24T01:18:47.357Z,93.44
2017-08-24T01:19:47.319Z,92.76
2017-08-24T01:20:46.994Z,93.24
2017-08-24T01:21:47.315Z,93.05
2017-08-24T01:22:47.290Z,93.29
2017-08-24T01:23:47.311Z,93.91
2017-08-24T01:24:47.296Z,93.44
2017-08-24T01:25:47.356Z,93.34
2017-08-24T01:26:47.345Z,93.82
2017-08-24T01:27:47.334Z,94.01
2017-08-24T01:28:47.365Z,93.82
2017-08-24T01:29:48.381Z,94.01
2017-08-24T01:30:47.074Z,93.82
2017-08-24T01:31:47.378Z,93.44
2017-08-24T01:32:47.373Z,93.34
2017-08-24T01:33:47.350Z,93.44
2017-08-24T01:34:47.329Z,93.15
2017-08-24T01:35:47.324Z,92.96
2017-08-24T01:36:46.995Z,92.86
2017-08-24T01:37:47.042Z,92.38
2017-08-24T01:38:47.356Z,92.57
2017-08-24T01:39:47.356Z,92.29
2017-08-24T01:40:47.548Z,92.09
2017-08-24T01:41:47.552Z,92.61
2017-08-24T01:42:47.218Z,92.52
2017-08-24T01:43:47.764Z,92.81
2017-08-24T01:44:47.245Z,92.86
2017-08-24T01:45:47.361Z,92.57
2017-08-24T01:46:47.377Z,91.99
2017-08-24T01:47:47.354Z,92.86
2017-08-24T01:48:47.408Z,92.67
2017-08-24T01:49:47.371Z,93.05
2017-08-24T01:50:47.640Z,94.21
2017-08-24T01:51:47.557Z,94.11
2017-08-24T01:52:47.407Z,94.11
2017-08-24T01:53:47.407Z,94.4
2017-08-24T01:54:47.399Z,94.78
2017-08-24T01:55:47.534Z,95.07
2017-08-24T01:56:47.362Z,94.98
2017-08-24T01:57:47.397Z,95.89
2017-08-24T01:58:47.107Z,96.47
2017-08-24T01:59:47.096Z,96.13
2017-08-24T02:00:47.081Z,96.7
2017-08-24T02:01:47.380Z,97.14
2017-08-24T02:02:47.343Z,97.33
2017-08-24T02:03:47.398Z,97.14
2017-08-24T02:04:47.425Z,96.37
2017-08-24T02:05:47.109Z,96.37
2017-08-24T02:06:47.385Z,97.24
2017-08-24T02:07:47.117Z,96.94
2017-08-24T02:08:47.201Z,96.17
2017-08-24T02:09:47.380Z,96.08
2017-08-24T02:10:47.060Z,96.32
2017-08-24T02:11:47.424Z,96.22
2017-08-24T02:12:47.463Z,95.98
2017-08-24T02:13:47.436Z,95.4
2017-08-24T02:14:47.402Z,95.6
2017-08-24T02:15:47.429Z,96.03
2017-08-24T02:16:47.388Z,95.98
2017-08-24T02:17:47.427Z,96.08
2017-08-24T02:18:47.418Z,95.98
2017-08-24T02:19:47.399Z,96.27
2017-08-24T02:20:47.401Z,96.66
2017-08-24T02:21:47.084Z,96.94
2017-08-24T02:22:47.441Z,97.71
2017-08-24T02:23:47.157Z,97.71
2017-08-24T02:24:47.458Z,97.71
2017-08-24T02:25:47.405Z,98
2017-08-24T02:26:47.439Z,98
2017-08-24T02:27:47.485Z,97.42
2017-08-24T02:28:47.438Z,96.94
2017-08-24T02:29:47.436Z,97.04
2017-08-24T02:30:47.197Z,96.27
2017-08-24T02:31:47.462Z,96.47
2017-08-24T02:32:47.149Z,96.37
2017-08-24T02:33:47.146Z,96.37
2017-08-24T02:34:47.497Z,96.37
2017-08-24T02:35:47.171Z,95.89
2017-08-24T02:36:47.439Z,96.08
2017-08-24T02:37:47.440Z,95.79
2017-08-24T02:38:47.158Z,95.89
2017-08-24T02:39:47.467Z,96.27
2017-08-24T02:40:47.505Z,96.47
2017-08-24T02:41:47.168Z,96.17
2017-08-24T02:42:47.452Z,96.27
2017-08-24T02:43:47.416Z,95.98
2017-08-24T02:44:47.418Z,96.27
2017-08-24T02:45:47.420Z,95.7
2017-08-24T02:46:47.425Z,95.98
2017-08-24T02:47:47.422Z,95.89
2017-08-24T02:48:47.422Z,96.37
2017-08-24T02:49:47.421Z,96.37
2017-08-24T02:50:47.441Z,96.17
2017-08-24T02:51:47.143Z,97.14
2017-08-24T02:52:47.431Z,97.33
2017-08-24T02:53:47.429Z,97.71
2017-08-24T02:54:47.462Z,97.52
2017-08-24T02:55:47.431Z,98.1
2017-08-24T02:56:47.431Z,98
2017-08-24T02:57:47.134Z,97.71
2017-08-24T02:58:47.136Z,97.71
2017-08-24T02:59:47.459Z,97.81
2017-08-24T03:00:52.242Z,98.1
2017-08-24T03:01:47.139Z,98.1
2017-08-24T03:02:47.442Z,97.42
2017-08-24T03:03:47.443Z,97.33
2017-08-24T03:04:47.449Z,97.24
2017-08-24T03:05:47.146Z,97.04
2017-08-24T03:06:47.449Z,97.14
2017-08-24T03:07:47.456Z,97.52
2017-08-24T03:08:47.454Z,97.14
2017-08-24T03:09:47.463Z,98
2017-08-24T03:10:47.455Z,97.71
2017-08-24T03:11:47.457Z,97.33
2017-08-24T03:12:47.459Z,97.14
2017-08-24T03:13:47.161Z,98.1
2017-08-24T03:14:47.475Z,97.62
2017-08-24T03:15:47.465Z,98.1
2017-08-24T03:16:47.163Z,97.91
2017-08-24T03:17:47.472Z,98.53
2017-08-24T03:18:47.467Z,98.82
2017-08-24T03:19:47.483Z,98.34
2017-08-24T03:20:47.469Z,98.53
2017-08-24T03:21:47.469Z,98.43
2017-08-24T03:22:47.475Z,98.24
2017-08-24T03:23:47.472Z,98.53
2017-08-24T03:24:47.477Z,98.91
2017-08-24T03:25:47.475Z,98.72
2017-08-24T03:26:47.477Z,98.53
2017-08-24T03:27:47.484Z,99.2
2017-08-24T03:28:47.481Z,99.1
2017-08-24T03:29:47.484Z,99.3
2017-08-24T03:30:47.484Z,99.1
2017-08-24T03:31:47.481Z,98.43
2017-08-24T03:32:47.497Z,98.34
2017-08-24T03:33:47.488Z,98.14
2017-08-24T03:34:47.493Z,97.76
2017-08-24T03:35:47.489Z,97.86
2017-08-24T03:36:47.498Z,97.66
2017-08-24T03:37:47.498Z,98.05
2017-08-24T03:38:47.512Z,97.52
2017-08-24T03:39:47.201Z,97.19
2017-08-24T03:40:47.512Z,97.09
2017-08-24T03:41:47.503Z,97.19
2017-08-24T03:42:47.500Z,97.28
2017-08-24T03:43:47.500Z,96.42
2017-08-24T03:44:47.520Z,96.42
2017-08-24T03:45:47.506Z,96.42
2017-08-24T03:46:47.507Z,96.42
2017-08-24T03:47:47.506Z,97.38
2017-08-24T03:48:47.208Z,97.28
2017-08-24T03:49:47.228Z,97.19
2017-08-24T03:50:47.214Z,97.09
2017-08-24T03:51:47.516Z,96.99
2017-08-24T03:52:47.514Z,97.28
2017-08-24T03:53:47.517Z,97.09
2017-08-24T03:54:47.534Z,97.28
2017-08-24T03:55:47.521Z,97.19
2017-08-24T03:56:47.222Z,97.09
2017-08-24T03:57:47.527Z,96.99
2017-08-24T03:58:47.523Z,97.47
2017-08-24T03:59:47.540Z,97.19
2017-08-24T04:00:47.531Z,97.19
2017-08-24T04:01:47.537Z,97.62
2017-08-24T04:02:47.545Z,97.66
2017-08-24T04:03:47.549Z,97.47
2017-08-24T04:04:47.539Z,97.28
2017-08-24T04:05:47.542Z,97.33
2017-08-24T04:06:47.237Z,97.52
2017-08-24T04:07:47.543Z,96.37
2017-08-24T04:08:47.553Z,96.47
2017-08-24T04:09:47.550Z,96.47
2017-08-24T04:10:47.549Z,95.89
2017-08-24T04:11:47.558Z,95.7
2017-08-24T04:12:47.559Z,95.5
2017-08-24T04:13:47.562Z,95.6
2017-08-24T04:14:47.564Z,95.4
2017-08-24T04:15:47.261Z,95.7
2017-08-24T04:16:49.465Z,95.5
2017-08-24T04:17:48.112Z,95.6
2017-08-24T04:18:47.268Z,95.6
2017-08-24T04:19:47.564Z,95.89
2017-08-24T04:20:47.566Z,95.89
2017-08-24T04:21:47.567Z,95.89
2017-08-24T04:22:47.600Z,95.98
2017-08-24T04:23:47.569Z,96.22
2017-08-24T04:24:47.595Z,96.32
2017-08-24T04:25:47.591Z,96.32
2017-08-24T04:26:47.573Z,96.32
2017-08-24T04:27:47.271Z,95.98
2017-08-24T04:28:47.594Z,95.79
2017-08-24T04:29:47.588Z,96.17
2017-08-24T04:30:47.585Z,96.37
2017-08-24T04:31:49.632Z,96.47
2017-08-24T04:32:47.587Z,96.47
2017-08-24T04:33:47.586Z,96.32
2017-08-24T04:34:47.590Z,96.61
2017-08-24T04:35:47.587Z,95.84
2017-08-24T04:36:47.596Z,96.22
2017-08-24T04:37:47.294Z,96.42
2017-08-24T04:38:47.603Z,96.22
2017-08-24T04:39:47.612Z,96.61
2017-08-24T04:40:47.602Z,96.32
2017-08-24T04:41:47.606Z,96.42
2017-08-24T04:42:47.608Z,96.32
2017-08-24T04:43:47.600Z,95.84
2017-08-24T04:44:47.627Z,96.42
2017-08-24T04:45:47.605Z,96.08
2017-08-24T04:46:47.607Z,96.37
2017-08-24T04:47:47.611Z,96.08
2017-08-24T04:48:47.313Z,96.37
2017-08-24T04:49:47.626Z,95.89
2017-08-24T04:50:47.619Z,95.79
2017-08-24T04:51:47.641Z,95.6
2017-08-24T04:52:47.616Z,95.7
2017-08-24T04:53:47.619Z,95.21
2017-08-24T04:54:47.324Z,94.64
2017-08-24T04:55:47.621Z,94.83
2017-08-24T04:56:47.624Z,94.64
2017-08-24T04:57:47.629Z,94.45
2017-08-24T04:58:47.629Z,94.73
2017-08-24T04:59:47.641Z,94.35
2017-08-24T05:00:47.334Z,94.73
2017-08-24T05:01:47.342Z,94.21
2017-08-24T05:02:47.642Z,93.58
2017-08-24T05:03:47.643Z,93.44
2017-08-24T05:04:47.676Z,92.96
2017-08-24T05:05:47.664Z,92.19
2017-08-24T05:06:47.342Z,91.22
2017-08-24T05:07:47.664Z,91.08
2017-08-24T05:08:47.666Z,90.41
2017-08-24T05:09:47.671Z,90.5
2017-08-24T05:10:47.668Z,90.41
2017-08-24T05:11:47.668Z,89.83
2017-08-24T05:12:47.678Z,89.64
2017-08-24T05:13:47.674Z,89.15
2017-08-24T05:14:47.681Z,89.25
2017-08-24T05:15:47.677Z,88.87
2017-08-24T05:16:47.371Z,88.39
2017-08-24T05:17:47.684Z,88.04
2017-08-24T05:18:47.378Z,87.46
2017-08-24T05:19:47.697Z,86.51
2017-08-24T05:20:47.682Z,86.12
2017-08-24T05:21:47.688Z,85.58
2017-08-24T05:22:47.694Z,84.81
2017-08-24T05:23:47.395Z,85
2017-08-24T05:24:47.696Z,83.95
2017-08-24T05:25:47.694Z,83.37
2017-08-24T05:26:47.699Z,83.22
2017-08-24T05:27:47.701Z,82.83
2017-08-24T05:28:47.403Z,83.22
2017-08-24T05:29:47.709Z,82.54
2017-08-24T05:30:47.720Z,82.74
2017-08-24T05:31:47.726Z,83.12
2017-08-24T05:32:49.669Z,82.83
2017-08-24T05:33:47.722Z,82.89
2017-08-24T05:34:47.745Z,83.18
2017-08-24T05:35:47.739Z,83.47
2017-08-24T05:36:47.739Z,83.18
2017-08-24T05:37:47.736Z,82.7
2017-08-24T05:38:47.442Z,82.93
2017-08-24T05:39:47.745Z,82.31
2017-08-24T05:40:47.742Z,82.93
2017-08-24T05:41:47.749Z,82.16
2017-08-24T05:42:47.758Z,81.29
2017-08-24T05:43:47.762Z,80.56
2017-08-24T05:44:47.471Z,80.08
2017-08-24T05:45:47.471Z,79.5
2017-08-24T05:46:47.463Z,78.73
2017-08-24T05:47:47.768Z,78.48
2017-08-24T05:48:47.773Z,78.09
2017-08-24T05:49:47.790Z,77.71
2017-08-24T05:50:47.780Z,76.93
2017-08-24T05:51:47.784Z,76.1
2017-08-24T05:52:47.793Z,75.05
2017-08-24T05:53:47.806Z,74.69
2017-08-24T05:54:47.502Z,73.73
2017-08-24T05:55:47.499Z,72.67
2017-08-24T05:56:47.807Z,72.32
2017-08-24T05:57:47.524Z,71.74
2017-08-24T05:58:47.813Z,71.94
2017-08-24T05:59:47.853Z,71.88
2017-08-24T06:00:47.823Z,71.58
2017-08-24T06:01:47.550Z,72.03
2017-08-24T06:02:49.081Z,72.03
2017-08-24T06:03:47.534Z,72.86
2017-08-24T06:04:47.560Z,73.73
2017-08-24T06:05:47.849Z,74.89
2017-08-24T06:06:47.568Z,75.34
2017-08-24T06:07:47.570Z,75.34
2017-08-24T06:08:47.572Z,76.17
2017-08-24T06:09:47.878Z,75.72
2017-08-24T06:10:47.881Z,76.2
2017-08-24T06:11:47.875Z,76.4
2017-08-24T06:12:47.876Z,76.3
2017-08-24T06:13:47.883Z,76.45
2017-08-24T06:14:47.613Z,75.92
2017-08-24T06:15:47.895Z,75.92
2017-08-24T06:16:47.597Z,75.92
2017-08-24T06:17:47.896Z,75.92
2017-08-24T06:18:47.902Z,76.01
2017-08-24T06:19:47.925Z,75.82
2017-08-24T06:20:47.611Z,75.05
2017-08-24T06:21:47.612Z,74.12
2017-08-24T06:22:47.628Z,73.73
2017-08-24T06:23:47.926Z,72.42
2017-08-24T06:24:47.946Z,72.03
2017-08-24T06:25:47.936Z,70.81
2017-08-24T06:26:47.644Z,70.14
2017-08-24T06:27:47.645Z,68.52
2017-08-24T06:28:47.950Z,68.62
2017-08-24T06:29:47.961Z,67.4
2017-08-24T06:30:47.963Z,66.47
2017-08-24T06:31:47.962Z,65.98
2017-08-24T06:32:47.970Z,66.17
2017-08-24T06:33:47.976Z,65.01
2017-08-24T06:34:47.984Z,65.05
2017-08-24T06:35:47.704Z,64.95
2017-08-24T06:36:47.990Z,64.89
2017-08-24T06:37:47.993Z,64.4
2017-08-24T06:38:48.005Z,62.79
2017-08-24T06:39:48.035Z,62.2
2017-08-24T06:40:48.010Z,61.65
2017-08-24T06:41:48.016Z,61.43
2017-08-24T06:42:48.024Z,61.85
2017-08-24T06:43:48.027Z,61.36
2017-08-24T06:44:48.042Z,60.58
2017-08-24T06:45:48.036Z,60.49
2017-08-24T06:46:48.045Z,60.32
2017-08-24T06:47:48.061Z,59.84
2017-08-24T06:48:48.058Z,60.23
2017-08-24T06:49:48.071Z,61.1
2017-08-24T06:50:48.076Z,60.49
2017-08-24T06:51:48.072Z,60.68
2017-08-24T06:52:48.078Z,60.3
2017-08-24T06:53:48.105Z,60.03
2017-08-24T06:54:48.104Z,60.68
2017-08-24T06:55:48.104Z,61.65
2017-08-24T06:56:48.106Z,61.36
2017-08-24T06:57:48.113Z,61.55
2017-08-24T06:58:48.120Z,61.75
2017-08-24T06:59:48.128Z,61.75
2017-08-24T07:00:47.834Z,61.07
2017-08-24T07:01:48.136Z,60.49
2017-08-24T07:02:47.843Z,60.61
2017-08-24T07:03:48.146Z,59.74
2017-08-24T07:04:47.854Z,59.28
2017-08-24T07:05:47.863Z,58.8
2017-08-24T07:06:48.166Z,59.31
2017-08-24T07:07:48.169Z,59.28
2017-08-24T07:08:48.178Z,59.94
2017-08-24T07:09:48.185Z,60.91
2017-08-24T07:10:48.194Z,60.61
2017-08-24T07:11:48.196Z,60.81
2017-08-24T07:12:48.202Z,60.71
2017-08-24T07:13:48.214Z,60.52
2017-08-24T07:14:48.242Z,60.52
2017-08-24T07:15:48.221Z,60.61
2017-08-24T07:16:48.224Z,60.71
2017-08-24T07:17:48.229Z,60.61
2017-08-24T07:18:47.934Z,60.61
2017-08-24T07:19:47.943Z,60.64
2017-08-24T07:20:48.250Z,59.97
2017-08-24T07:21:48.256Z,58.54
2017-08-24T07:22:48.258Z,57.57
2017-08-24T07:23:48.277Z,57.11
2017-08-24T07:24:47.972Z,57.01
2017-08-24T07:25:48.279Z,57.23
2017-08-24T07:26:48.286Z,57.33
2017-08-24T07:27:48.291Z,57.53
2017-08-24T07:28:48.309Z,56.75
2017-08-24T07:29:48.311Z,56.77
2017-08-24T07:30:48.313Z,56.56
2017-08-24T07:31:48.325Z,57.53
2017-08-24T07:32:48.329Z,57.98
2017-08-24T07:33:52.637Z,59.05
2017-08-24T07:34:48.340Z,59.7
2017-08-24T07:35:48.390Z,60.48
2017-08-24T07:36:48.374Z,60.94
2017-08-24T07:37:48.370Z,61.22
2017-08-24T07:38:48.373Z,62.55
2017-08-24T07:39:48.375Z,62.65
2017-08-24T07:40:48.378Z,62.52
2017-08-24T07:41:48.401Z,63.01
2017-08-24T07:42:48.391Z,64.07
2017-08-24T07:43:48.091Z,64.37
2017-08-24T07:44:48.398Z,65.34
2017-08-24T07:45:48.412Z,64.47
2017-08-24T07:46:48.418Z,64.07
2017-08-24T07:47:48.416Z,64.47
2017-08-24T07:48:48.438Z,65.24
2017-08-24T07:49:48.435Z,65.98
2017-08-24T07:50:48.437Z,66.66
2017-08-24T07:51:48.140Z,68.95
2017-08-24T07:52:48.443Z,69.24
2017-08-24T07:53:48.449Z,70.08
2017-08-24T07:54:48.566Z,70.92
2017-08-24T07:55:48.231Z,71.4
2017-08-24T07:56:48.638Z,71.4
2017-08-24T07:57:48.655Z,71.44
2017-08-24T07:58:48.196Z,71.53
2017-08-24T07:59:48.201Z,71.82
2017-08-24T08:00:48.631Z,71.56
2017-08-24T08:01:48.320Z,71.47
2017-08-24T08:02:48.536Z,68.7
2017-08-24T08:03:48.265Z,67.27
2017-08-24T08:04:48.553Z,65.4
2017-08-24T08:05:48.555Z,63.01
2017-08-24T08:06:48.546Z,62.07
2017-08-24T08:07:48.546Z,61.41
2017-08-24T08:08:48.310Z,60.86
2017-08-24T08:09:48.598Z,59.21
2017-08-24T08:10:48.757Z,57.32
2017-08-24T08:11:48.595Z,56.96
2017-08-24T08:12:48.664Z,55.72
2017-08-24T08:13:48.340Z,56.4
2017-08-24T08:14:48.327Z,56.37
2017-08-24T08:15:48.628Z,58.13
2017-08-24T08:16:48.768Z,59.07
2017-08-24T08:17:48.386Z,59.82
2017-08-24T08:18:48.832Z,59.14
2017-08-24T08:19:48.652Z,57.51
2017-08-24T08:20:48.513Z,58.49
2017-08-24T08:21:48.790Z,57.61
2017-08-24T08:22:48.379Z,57.84
2017-08-24T08:23:48.440Z,56.96
2017-08-24T08:24:48.710Z,54.58
2017-08-24T08:25:48.387Z,54.11
2017-08-24T08:26:48.736Z,53.73
2017-08-24T08:27:48.719Z,54.21
2017-08-24T08:28:48.499Z,55.75
2017-08-24T08:29:48.802Z,56.89
2017-08-24T08:30:48.780Z,58.39
2017-08-24T08:31:48.715Z,59.82
2017-08-24T08:32:48.449Z,60.67
2017-08-24T08:33:48.468Z,60.47
2017-08-24T08:34:53.106Z,59.63
2017-08-24T08:35:48.853Z,59.63
2017-08-24T08:36:48.799Z,59.53
2017-08-24T08:37:48.507Z,58.95
2017-08-24T08:38:48.849Z,59.23
2017-08-24T08:39:48.845Z,59.69
2017-08-24T08:40:48.786Z,60.18
2017-08-24T08:41:48.824Z,60.64
2017-08-24T08:42:48.823Z,61.61
2017-08-24T08:43:48.493Z,62.74
2017-08-24T08:44:48.567Z,64.17
2017-08-24T08:45:48.926Z,64.62
2017-08-24T08:46:48.911Z,65.01
2017-08-24T08:47:48.881Z,64.72
2017-08-24T08:48:48.893Z,65.17
2017-08-24T08:49:48.841Z,65.27
2017-08-24T08:50:48.947Z,64.4
2017-08-24T08:51:48.987Z,65.17
2017-08-24T08:52:48.909Z,64.98
2017-08-24T08:53:49.262Z,65.17
2017-08-24T08:54:48.547Z,65.37
2017-08-24T08:55:48.936Z,65.85
2017-08-24T08:56:48.912Z,65.4
2017-08-24T08:57:48.976Z,65.3
2017-08-24T08:58:48.648Z,65.4
2017-08-24T08:59:48.978Z,64.43
2017-08-24T09:00:48.992Z,64.92
2017-08-24T09:01:48.918Z,64.43
2017-08-24T09:02:48.903Z,64.72
2017-08-24T09:03:49.064Z,64.69
2017-08-24T09:04:48.834Z,65.01
2017-08-24T09:05:48.763Z,64.72
2017-08-24T09:06:48.834Z,63.75
2017-08-24T09:07:49.184Z,63.78
2017-08-24T09:08:48.856Z,62.81
2017-08-24T09:09:49.127Z,61
2017-08-24T09:10:49.227Z,61.19
2017-08-24T09:11:48.911Z,60.74
2017-08-24T09:12:49.219Z,60.93
2017-08-24T09:13:49.168Z,60.54
2017-08-24T09:14:49.203Z,58.92
2017-08-24T09:15:49.461Z,58.82
2017-08-24T09:16:49.233Z,59.69
2017-08-24T09:17:48.854Z,59.59
2017-08-24T09:18:49.174Z,59.76
2017-08-24T09:19:49.204Z,59.38
2017-08-24T09:20:49.196Z,57.65
2017-08-24T09:21:48.876Z,58.04
2017-08-24T09:22:48.780Z,57.26
2017-08-24T09:23:48.757Z,56.97
2017-08-24T09:24:49.092Z,57.17
2017-08-24T09:25:48.762Z,57.26
2017-08-24T09:26:49.179Z,57.72
2017-08-24T09:27:49.116Z,57.62
2017-08-24T09:28:49.153Z,57.33
2017-08-24T09:29:48.816Z,57.07
2017-08-24T09:30:48.765Z,57.85
2017-08-24T09:31:49.093Z,57.85
2017-08-24T09:32:49.091Z,58.31
2017-08-24T09:33:49.091Z,58.01
2017-08-24T09:34:48.789Z,57.92
2017-08-24T09:35:50.103Z,56.56
2017-08-24T09:36:48.806Z,56.46
2017-08-24T09:37:48.816Z,56.07
2017-08-24T09:38:48.820Z,55.88
2017-08-24T09:39:49.130Z,55.58
2017-08-24T09:40:49.136Z,55.98
2017-08-24T09:41:49.156Z,55.98
2017-08-24T09:42:49.154Z,55.88
2017-08-24T09:43:48.870Z,56.36
2017-08-24T09:44:49.173Z,56.85
2017-08-24T09:45:49.191Z,56.82
2017-08-24T09:46:49.177Z,57.31
2017-08-24T09:47:48.887Z,57.21
2017-08-24T09:48:48.897Z,57.76
2017-08-24T09:49:49.195Z,58.93
2017-08-24T09:50:49.640Z,58.25
2017-08-24T09:51:49.203Z,57.21
2017-08-24T09:52:49.209Z,56.26
2017-08-24T09:53:48.905Z,56.16
2017-08-24T09:54:49.234Z,56.85
2017-08-24T09:55:49.235Z,55.98
2017-08-24T09:56:49.229Z,55.13
2017-08-24T09:57:49.238Z,54.35
2017-08-24T09:58:49.246Z,53.99
2017-08-24T09:59:48.944Z,54.57
2017-08-24T10:00:48.952Z,54.18
2017-08-24T10:01:49.261Z,54.38
2017-08-24T10:02:48.961Z,53.89
2017-08-24T10:03:49.277Z,54.38
2017-08-24T10:04:49.286Z,54.47
2017-08-24T10:05:49.293Z,54.08
2017-08-24T10:06:48.986Z,54.15
2017-08-24T10:07:48.992Z,54.74
2017-08-24T10:08:49.309Z,55.51
2017-08-24T10:09:49.006Z,54.93
2017-08-24T10:10:49.323Z,55.78
2017-08-24T10:11:49.349Z,55.98
2017-08-24T10:12:49.375Z,56.34
2017-08-24T10:13:49.339Z,56.43
2017-08-24T10:14:49.345Z,56.07
2017-08-24T10:15:49.351Z,56.14
2017-08-24T10:16:49.051Z,55.85
2017-08-24T10:17:49.363Z,56.04
2017-08-24T10:18:49.060Z,56.62
2017-08-24T10:19:49.067Z,56.62
2017-08-24T10:20:49.382Z,57.31
2017-08-24T10:21:49.079Z,56.34
2017-08-24T10:22:49.418Z,55.68
2017-08-24T10:23:49.403Z,55.88
2017-08-24T10:24:49.106Z,55.98
2017-08-24T10:25:49.412Z,56.26
2017-08-24T10:26:49.125Z,56.43
2017-08-24T10:27:49.426Z,57.4
2017-08-24T10:28:49.150Z,57.11
2017-08-24T10:29:49.477Z,57.31
2017-08-24T10:30:49.139Z,56.82
2017-08-24T10:31:49.141Z,56.92
2017-08-24T10:32:49.149Z,56.72
2017-08-24T10:33:49.460Z,57.4
2017-08-24T10:34:49.465Z,57.31
2017-08-24T10:35:49.164Z,57.67
2017-08-24T10:36:50.628Z,58.64
2017-08-24T10:37:49.191Z,58.25
2017-08-24T10:38:49.493Z,58.73
2017-08-24T10:39:49.192Z,58.44
2017-08-24T10:40:49.514Z,58.64
2017-08-24T10:41:49.199Z,58.73
2017-08-24T10:42:49.285Z,58.73
2017-08-24T10:43:49.519Z,58.7
2017-08-24T10:44:49.525Z,59.77
2017-08-24T10:45:49.528Z,60.16
2017-08-24T10:46:49.694Z,60.25
2017-08-24T10:47:49.604Z,59.87
2017-08-24T10:48:49.545Z,60.55
2017-08-24T10:49:49.250Z,59.67
2017-08-24T10:50:49.559Z,59.38
2017-08-24T10:51:49.562Z,59.38
2017-08-24T10:52:49.706Z,59.09
2017-08-24T10:53:49.611Z,58.8
2017-08-24T10:54:49.270Z,58.8
2017-08-24T10:55:49.590Z,59.19
2017-08-24T10:56:49.589Z,58.83
2017-08-24T10:57:49.286Z,58.73
2017-08-24T10:58:49.608Z,58.05
2017-08-24T10:59:49.296Z,58.54
2017-08-24T11:00:49.618Z,58.34
2017-08-24T11:01:49.637Z,57.76
2017-08-24T11:02:49.629Z,58.34
2017-08-24T11:03:49.636Z,58.64
2017-08-24T11:04:49.635Z,59.9
2017-08-24T11:05:49.326Z,58.44
2017-08-24T11:06:49.649Z,58.34
2017-08-24T11:07:49.342Z,57.76
2017-08-24T11:08:49.352Z,58.44
2017-08-24T11:09:49.661Z,58.15
2017-08-24T11:10:49.672Z,57.89
2017-08-24T11:11:49.712Z,57.69
2017-08-24T11:12:49.684Z,57.6
2017-08-24T11:13:49.690Z,57.31
2017-08-24T11:14:49.383Z,57.31
2017-08-24T11:15:49.708Z,57.4
2017-08-24T11:16:49.696Z,57.79
2017-08-24T11:17:49.404Z,58.64
2017-08-24T11:18:49.719Z,59.9
2017-08-24T11:19:49.402Z,58.73
2017-08-24T11:20:49.780Z,58.54
2017-08-24T11:21:49.747Z,57.67
2017-08-24T11:22:49.811Z,57.31
2017-08-24T11:23:49.429Z,56.92
2017-08-24T11:24:49.482Z,57.21
2017-08-24T11:25:49.754Z,57.31
2017-08-24T11:26:49.754Z,57.31
2017-08-24T11:27:49.814Z,57.21
2017-08-24T11:28:49.794Z,57.4
2017-08-24T11:29:49.462Z,57.31
2017-08-24T11:30:49.467Z,55.94
2017-08-24T11:31:49.830Z,56.07
2017-08-24T11:32:49.477Z,55.78
2017-08-24T11:33:49.798Z,56.16
2017-08-24T11:34:49.804Z,56.16
2017-08-24T11:35:49.804Z,54.93
2017-08-24T11:36:49.500Z,55.13
2017-08-24T11:37:49.821Z,55.8
2017-08-24T11:38:49.826Z,54.54
2017-08-24T11:39:49.827Z,54.35
2017-08-24T11:40:49.521Z,54.54
2017-08-24T11:41:49.837Z,55.1
2017-08-24T11:42:49.845Z,54.9
2017-08-24T11:43:49.541Z,55
2017-08-24T11:44:49.875Z,54.74
2017-08-24T11:45:49.549Z,54.15
2017-08-24T11:46:49.925Z,54.22
2017-08-24T11:47:49.569Z,54.44
2017-08-24T11:48:49.885Z,54.22
2017-08-24T11:49:49.885Z,54.13
2017-08-24T11:50:49.962Z,55.19
2017-08-24T11:51:49.893Z,55.19
2017-08-24T11:52:49.909Z,54.61
2017-08-24T11:53:49.597Z,54.42
2017-08-24T11:54:49.604Z,56.75
2017-08-24T11:55:49.916Z,57.04
2017-08-24T11:56:49.925Z,53.86
2017-08-24T11:57:49.618Z,53.86
2017-08-24T11:58:49.933Z,52.89
2017-08-24T11:59:49.632Z,52.89
2017-08-24T12:00:50.067Z,53.18
2017-08-24T12:01:49.645Z,52.89
2017-08-24T12:02:49.973Z,52.4
2017-08-24T12:03:49.968Z,51.55
2017-08-24T12:04:49.666Z,51.84
2017-08-24T12:05:49.973Z,51.75
2017-08-24T12:06:49.978Z,50.87
2017-08-24T12:07:49.674Z,51.55
2017-08-24T12:08:50.088Z,52.98
2017-08-24T12:09:49.846Z,53.08
2017-08-24T12:10:50.010Z,52.82
2017-08-24T12:11:50.008Z,52.11
2017-08-24T12:12:49.705Z,51.82
2017-08-24T12:13:50.191Z,51.17
2017-08-24T12:14:50.091Z,51.17
2017-08-24T12:15:50.031Z,51.17
2017-08-24T12:16:50.058Z,51.36
2017-08-24T12:17:49.830Z,51.72
2017-08-24T12:18:49.748Z,51.82
2017-08-24T12:19:50.060Z,51.17
2017-08-24T12:20:50.062Z,51.07
2017-08-24T12:21:50.064Z,50.19
2017-08-24T12:22:50.071Z,50.29
2017-08-24T12:23:50.077Z,50.19
2017-08-24T12:24:49.805Z,50.09
2017-08-24T12:25:50.083Z,50.97
2017-08-24T12:26:50.148Z,50.87
2017-08-24T12:27:50.100Z,50.29
2017-08-24T12:28:50.153Z,48.75
2017-08-24T12:29:49.814Z,47.59
2017-08-24T12:30:49.806Z,47.42
2017-08-24T12:31:50.134Z,47.61
2017-08-24T12:32:49.827Z,47.22
2017-08-24T12:33:50.262Z,47.53
2017-08-24T12:34:50.139Z,47.53
2017-08-24T12:35:50.147Z,46.86
2017-08-24T12:36:49.842Z,47.25
2017-08-24T12:37:50.178Z,46.66
2017-08-24T12:38:50.164Z,45.42
2017-08-24T12:39:50.176Z,44.54
2017-08-24T12:40:50.176Z,44.24
2017-08-24T12:41:50.200Z,43.85
2017-08-24T12:42:50.196Z,44.34
2017-08-24T12:43:50.197Z,44.03
2017-08-24T12:44:49.900Z,43.37
2017-08-24T12:45:50.213Z,43.37
2017-08-24T12:53:27.888Z,44.4
2017-08-24T12:54:10.621Z,44.4
2017-08-24T12:55:11.586Z,44.89
2017-08-24T12:56:10.324Z,45.18
2017-08-24T12:57:10.641Z,44.59
2017-08-24T12:58:10.644Z,44.49
2017-08-24T12:59:10.654Z,44.49
2017-08-24T13:00:11.002Z,44.01
2017-08-24T13:01:10.670Z,43.93
2017-08-24T13:02:10.674Z,43.35